Wailuku, Hawaii
Current Conditions -  °F | °C
As of 10:54 AM on Wednesday 22 Oct 2014 (Local Time) from PHOG Reporting Station
Broken Clouds Broken Clouds  
Wind Chill: 86°   Ceiling: 6000
Heat Index: 92°   Visibility: 10mi
Dew Point: 72°   Wind: 10mph
Humidity: 63%   Direction: 40°NE
Pressure: 30.02"   Gusts: NA
Location:  20.89°N, 156.5°W
Report Text: PHOG 222054Z 04009KT 10SM FEW035 BKN060 30/22 A3002 RMK AO2 SLP171 T03000222 50001
Loading
Personal Weather Stations






























Interactive Weather Map
Tropical Storm Tracking
New forecast layout! Learn more

10-Day Weather Forecast

Advertisements
Track Severe Weather on mobile